Time;durP1;ratioP1;P1;durP2;ratioP2;P2;SDS_P1;SDS_P2;PMS_P1;PMS_P2;Temp;Humidity;BMP_temperature;BMP_pressure;BME280_temperature;BME280_humidity;BME280_pressure;Samples;Min_cycle;Max_cycle;Signal;HPM_P1;HPM_P2
2023/09/19 00:02:13;;;;;;;9.20;4.80;;;;;;;19.74;100.00;97176.31;1223729;75;2924032;-82
2023/09/19 00:04:45;;;;;;;7.55;4.45;;;;;;;19.69;100.00;97174.47;1210133;75;3874538;-77
2023/09/19 00:07:18;;;;;;;7.10;4.90;;;;;;;19.66;100.00;97172.75;1137403;75;8877317;-80
2023/09/19 00:09:50;;;;;;;6.40;4.50;;;;;;;19.65;100.00;97178.84;1221264;75;3069016;-79
2023/09/19 00:12:26;;;;;;;7.55;4.95;;;;;;;19.63;100.00;97173.13;1195311;75;5081344;-83
2023/09/19 00:15:00;;;;;;;7.00;4.60;;;;;;;19.63;100.00;97170.34;1194987;75;4917431;-81
2023/09/19 00:17:37;;;;;;;7.35;4.15;;;;;;;19.68;100.00;97175.03;1182864;75;4098372;-79
2023/09/19 00:20:12;;;;;;;5.85;3.95;;;;;;;19.63;100.00;97178.69;1206226;75;3979991;-79
2023/09/19 00:22:45;;;;;;;7.40;4.70;;;;;;;19.56;100.00;97183.63;1219044;75;3030263;-78
2023/09/19 00:25:18;;;;;;;8.40;4.75;;;;;;;19.56;100.00;97186.41;1221740;75;3057888;-80
2023/09/19 00:27:53;;;;;;;9.20;5.60;;;;;;;19.49;100.00;97175.28;1208481;75;4067177;-80
2023/09/19 00:30:26;;;;;;;7.00;4.10;;;;;;;19.44;100.00;97178.97;1223916;75;2922969;-79
2023/09/19 00:33:00;;;;;;;7.25;4.50;;;;;;;19.43;100.00;97178.19;1206301;75;3801563;-79
2023/09/19 00:35:33;;;;;;;5.70;4.35;;;;;;;19.46;100.00;97168.78;1199188;75;4859919;-80
2023/09/19 00:38:06;;;;;;;8.75;4.35;;;;;;;19.45;100.00;97174.88;1224674;75;2915316;-78
2023/09/19 00:40:39;;;;;;;8.15;4.60;;;;;;;19.44;100.00;97174.16;1207819;75;4082085;-79
2023/09/19 00:43:15;;;;;;;6.50;3.70;;;;;;;19.45;100.00;97175.63;1221271;75;3089854;-79
2023/09/19 00:45:51;;;;;;;7.70;4.10;;;;;;;19.42;100.00;97179.50;1219860;75;3090123;-82
2023/09/19 00:48:28;;;;;;;6.85;3.50;;;;;;;19.53;100.00;97175.66;1224261;75;2979403;-79
2023/09/19 00:51:08;;;;;;;8.30;4.30;;;;;;;19.45;100.00;97178.41;1155584;75;8592108;-79
2023/09/19 00:53:42;;;;;;;9.25;3.50;;;;;;;19.49;100.00;97180.84;1223141;75;3040103;-79
2023/09/19 00:56:14;;;;;;;6.30;3.70;;;;;;;19.42;100.00;97196.16;1211492;75;3903503;-78
2023/09/19 00:58:50;;;;;;;7.40;3.70;;;;;;;19.47;100.00;97188.97;1184519;75;4062005;-76
2023/09/19 01:01:25;;;;;;;6.35;3.50;;;;;;;19.47;100.00;97186.94;1209652;75;4021430;-78
2023/09/19 01:03:57;;;;;;;6.55;3.45;;;;;;;19.47;100.00;97181.38;1200753;75;3902553;-78
2023/09/19 01:06:31;;;;;;;5.40;3.90;;;;;;;19.44;100.00;97185.25;1225119;75;2916768;-79
2023/09/19 01:09:04;;;;;;;6.00;3.45;;;;;;;19.56;100.00;97185.69;1177781;75;4869253;-79
2023/09/19 01:11:46;;;;;;;5.30;3.60;;;;;;;19.43;100.00;97183.00;1208991;75;4013853;-79
2023/09/19 01:14:34;;;;;;;5.15;3.50;;;;;;;19.50;100.00;97185.09;1225792;75;2923839;-78
2023/09/19 01:17:13;;;;;;;6.50;3.90;;;;;;;19.45;100.00;97191.53;1224674;75;2966944;-79
2023/09/19 01:20:18;;;;;;;6.35;3.50;;;;;;;19.43;100.00;97197.63;1198101;75;4019810;-79
2023/09/19 01:23:04;;;;;;;8.75;3.65;;;;;;;;;;1222725;75;2970767;-80
2023/09/19 01:26:10;;;;;;;6.05;3.05;;;;;;;19.46;100.00;97190.25;1206074;75;4127441;-76
2023/09/19 01:29:10;;;;;;;9.20;3.55;;;;;;;19.46;100.00;97187.47;1220210;75;3084909;-79
2023/09/19 01:31:48;;;;;;;5.45;3.50;;;;;;;19.41;100.00;97185.59;1145031;75;8575016;-78
2023/09/19 01:34:20;;;;;;;4.70;3.20;;;;;;;19.30;100.00;97195.72;1211489;75;3982625;-79
2023/09/19 01:36:53;;;;;;;6.50;3.60;;;;;;;19.24;100.00;97189.59;1225512;75;2971795;-79
2023/09/19 01:39:25;;;;;;;6.00;3.50;;;;;;;19.42;100.00;97196.16;1225611;67;2930997;-78
2023/09/19 01:42:14;;;;;;;3.00;2.40;;;;;;;19.84;100.00;97190.44;1174841;75;4998880;-77
2023/09/19 01:44:57;;;;;;;4.05;2.10;;;;;;;19.82;100.00;97190.25;1210403;67;4024334;-81
2023/09/19 01:47:41;;;;;;;5.10;2.30;;;;;;;19.65;100.00;97187.94;1224181;75;2954905;-77
2023/09/19 01:50:25;;;;;;;3.20;2.10;;;;;;;19.66;100.00;97188.69;1197475;75;4916007;-78
2023/09/19 01:53:04;;;;;;;5.25;2.45;;;;;;;19.64;100.00;97199.59;1143658;75;8715358;-77
2023/09/19 01:55:45;;;;;;;2.85;2.30;;;;;;;19.84;100.00;97189.69;1224690;75;2915394;-80
2023/09/19 01:58:24;;;;;;;2.70;2.00;;;;;;;19.73;100.00;97197.06;1210755;75;3809058;-77
2023/09/19 02:01:00;;;;;;;5.75;2.75;;;;;;;19.54;100.00;97199.38;1173046;75;4846396;-78
2023/09/19 02:03:36;;;;;;;4.60;3.00;;;;;;;19.42;100.00;97198.94;1186173;75;4831606;-77
2023/09/19 02:06:11;;;;;;;7.00;2.90;;;;;;;19.38;100.00;97201.31;1209414;75;3841716;-78
2023/09/19 02:08:44;;;;;;;5.80;3.00;;;;;;;19.39;100.00;97208.38;1194578;75;4080501;-79
2023/09/19 02:11:17;;;;;;;6.60;2.85;;;;;;;19.42;100.00;97212.06;1183794;75;4852558;-78
2023/09/19 02:13:53;;;;;;;4.30;2.50;;;;;;;19.42;100.00;97215.59;1209283;75;3976910;-79
2023/09/19 02:16:25;;;;;;;3.60;2.30;;;;;;;19.39;100.00;97222.25;1218799;75;3085131;-79
2023/09/19 02:19:05;;;;;;;4.80;2.45;;;;;;;19.49;100.00;97222.47;1219660;75;3091916;-79
2023/09/19 02:21:40;;;;;;;4.30;2.50;;;;;;;19.46;100.00;97231.88;1208544;75;3995426;-81
2023/09/19 02:24:13;;;;;;;5.30;2.30;;;;;;;19.72;100.00;97242.81;1194252;75;4070687;-79
2023/09/19 02:26:45;;;;;;;4.65;2.25;;;;;;;19.54;100.00;97243.78;1218194;75;3081609;-81
2023/09/19 02:29:18;;;;;;;3.55;2.30;;;;;;;19.63;100.00;97232.19;1180131;75;4948393;-76
2023/09/19 02:31:51;;;;;;;3.55;2.55;;;;;;;;;;1209023;75;3995493;-77
2023/09/19 02:34:26;;;;;;;4.75;2.00;;;;;;;19.55;100.00;97225.81;1223958;75;2992748;-79
2023/09/19 02:36:59;;;;;;;5.20;2.40;;;;;;;19.33;100.00;97233.47;1209053;75;4104323;-81
2023/09/19 02:39:31;;;;;;;4.00;2.45;;;;;;;19.32;100.00;97243.09;1225843;75;2937057;-79
2023/09/19 02:42:06;;;;;;;3.65;2.30;;;;;;;19.44;100.00;97251.16;1223012;75;3068634;-79
2023/09/19 02:44:39;;;;;;;3.95;2.25;;;;;;;19.40;100.00;97253.50;1186135;75;5001098;-79
2023/09/19 02:47:12;;;;;;;4.50;2.30;;;;;;;19.45;100.00;97252.63;1210877;75;3843619;-80
2023/09/19 02:49:48;;;;;;;4.60;2.30;;;;;;;19.38;100.00;97262.38;1220050;75;3086919;-74
2023/09/19 02:52:20;;;;;;;4.90;2.10;;;;;;;19.33;100.00;97266.06;1207843;75;3919644;-77
2023/09/19 02:54:53;;;;;;;3.95;2.30;;;;;;;19.32;100.00;97265.31;1176836;75;4941455;-77
2023/09/19 02:57:27;;;;;;;3.45;1.60;;;;;;;19.27;100.00;97268.25;1208401;75;3913267;-82
2023/09/19 03:00:00;;;;;;;3.40;1.65;;;;;;;19.29;100.00;97277.50;1220268;75;3089123;-79
2023/09/19 03:02:34;;;;;;;3.15;1.55;;;;;;;19.45;100.00;97280.38;1183946;75;4963191;-78
2023/09/19 03:05:12;;;;;;;2.50;1.50;;;;;;;19.49;100.00;97275.97;1195110;75;3937467;-77
2023/09/19 03:07:45;;;;;;;1.65;1.25;;;;;;;;;;1223251;75;2975537;-77
2023/09/19 03:10:18;;;;;;;1.90;1.35;;;;;;;19.53;100.00;97284.69;1224705;67;2925033;-78
2023/09/19 03:12:51;;;;;;;2.30;1.40;;;;;;;19.28;100.00;97284.34;1208087;75;4013118;-79
2023/09/19 03:15:24;;;;;;;2.50;1.55;;;;;;;19.31;100.00;97290.81;1223617;75;2928030;-76
2023/09/19 03:17:57;;;;;;;2.40;1.30;;;;;;;19.37;100.00;97294.94;1220123;75;3032412;-80
2023/09/19 03:20:32;;;;;;;1.70;1.30;;;;;;;19.49;100.00;97294.66;1221206;75;3083308;-78
2023/09/19 03:23:06;;;;;;;4.18;1.80;;;;;;;19.22;100.00;97294.09;1196967;75;4971651;-74
2023/09/19 03:25:39;;;;;;;1.70;1.30;;;;;;;19.21;100.00;97298.91;1195908;75;4123537;-76
2023/09/19 03:28:11;;;;;;;2.60;1.50;;;;;;;19.40;100.00;97304.22;1222128;75;2990076;-78
2023/09/19 03:30:44;;;;;;;2.50;1.35;;;;;;;19.40;100.00;97303.47;1175328;75;5043866;-79
2023/09/19 03:33:17;;;;;;;2.60;1.60;;;;;;;19.42;100.00;97300.91;1216206;75;3098160;-78
2023/09/19 03:35:59;;;;;;;1.55;1.25;;;;;;;19.24;100.00;97308.94;1210630;75;4029495;-77
2023/09/19 03:38:32;;;;;;;3.30;1.15;;;;;;;19.26;100.00;97309.09;1220039;75;3060669;-81
2023/09/19 03:41:05;;;;;;;5.70;1.40;;;;;;;19.13;100.00;97304.41;1223483;75;2969077;-78
2023/09/19 03:43:38;;;;;;;2.25;1.20;;;;;;;19.09;100.00;97303.97;1211853;75;3897127;-76
2023/09/19 03:46:12;;;;;;;2.20;1.20;;;;;;;19.05;100.00;97311.91;1224077;75;2926120;-80
2023/09/19 03:48:45;;;;;;;1.75;0.90;;;;;;;19.40;100.00;97311.81;1222802;75;2971830;-80
2023/09/19 03:51:20;;;;;;;1.70;0.90;;;;;;;19.43;100.00;97307.94;1222407;75;2966828;-82
2023/09/19 03:53:53;;;;;;;1.15;0.80;;;;;;;19.28;100.00;97316.91;1199680;75;5039854;-76
2023/09/19 03:56:26;;;;;;;1.10;0.80;;;;;;;19.33;100.00;97305.66;1220808;75;3024865;-80
2023/09/19 03:59:03;;;;;;;0.52;0.52;;;;;;;19.41;100.00;97300.16;1197162;75;8571789;-74
2023/09/19 04:01:36;;;;;;;1.30;0.55;;;;;;;19.19;100.00;97295.91;1220241;75;3072782;-77
2023/09/19 04:04:12;;;;;;;2.45;0.65;;;;;;;19.07;100.00;97301.03;1208067;75;4080491;-81
2023/09/19 04:06:48;;;;;;;1.55;0.70;;;;;;;19.16;100.00;97311.63;1182169;75;4968234;-74
2023/09/19 04:09:21;;;;;;;0.95;0.85;;;;;;;19.13;100.00;97317.53;1224651;75;2925812;-80
2023/09/19 04:11:54;;;;;;;0.90;0.70;;;;;;;19.42;100.00;97315.53;1223991;75;2916928;-80
2023/09/19 04:14:27;;;;;;;0.50;0.40;;;;;;;19.45;100.00;97322.03;1196701;75;4063278;-76
2023/09/19 04:17:00;;;;;;;2.65;0.70;;;;;;;19.18;100.00;97321.47;1221048;75;3078168;-78
2023/09/19 04:19:32;;;;;;;1.00;0.65;;;;;;;19.35;100.00;97327.31;1196424;75;4972020;-80
2023/09/19 04:22:08;;;;;;;;;;;;;;;19.30;100.00;97330.97;1060418;75;10090243;-77
2023/09/19 04:24:40;;;;;;;2.25;0.65;;;;;;;19.06;100.00;97332.81;1220364;75;3096267;-79
2023/09/19 04:27:14;;;;;;;1.85;1.15;;;;;;;19.21;100.00;97340.53;1182048;75;5091162;-80
2023/09/19 04:29:47;;;;;;;4.50;3.05;;;;;;;19.10;100.00;97341.56;1184090;75;4977842;-77
2023/09/19 04:32:20;;;;;;;3.20;2.70;;;;;;;19.24;100.00;97350.56;1198751;75;3945840;-81
2023/09/19 04:34:54;;;;;;;4.80;3.00;;;;;;;19.12;100.00;97349.31;1217668;75;3064813;-79
2023/09/19 04:37:29;;;;;;;2.65;1.70;;;;;;;19.19;100.00;97353.44;1197993;75;4866276;-77
2023/09/19 04:40:04;;;;;;;24.95;18.75;;;;;;;19.08;100.00;97362.81;1209440;75;3971940;-78
2023/09/19 04:42:37;;;;;;;15.50;12.10;;;;;;;18.93;100.00;97368.97;1220855;75;2968855;-76
2023/09/19 04:45:11;;;;;;;13.40;10.25;;;;;;;19.07;100.00;97378.72;1210181;75;3811485;-79
2023/09/19 04:47:46;;;;;;;7.10;4.80;;;;;;;18.92;100.00;97384.09;1196785;75;4011137;-77
2023/09/19 04:50:19;;;;;;;3.95;3.00;;;;;;;18.81;100.00;97376.03;1223814;75;2925427;-76
2023/09/19 04:52:56;;;;;;;4.50;2.90;;;;;;;19.00;100.00;97382.16;1219279;67;3082420;-78
2023/09/19 04:55:30;;;;;;;3.80;2.80;;;;;;;18.98;100.00;97381.19;1126481;75;9574756;-81
2023/09/19 04:58:03;;;;;;;3.20;1.90;;;;;;;19.08;100.00;97391.28;1216546;75;3102704;-76
2023/09/19 05:00:36;;;;;;;1.60;1.40;;;;;;;19.16;100.00;97389.31;1205510;75;3913192;-79
2023/09/19 05:03:09;;;;;;;3.00;1.20;;;;;;;18.81;100.00;97393.44;1208929;75;4107749;-75
2023/09/19 05:05:42;;;;;;;1.60;0.90;;;;;;;18.82;100.00;97397.69;1195610;75;5098948;-77
2023/09/19 05:08:17;;;;;;;1.40;1.00;;;;;;;18.57;100.00;97399.22;1195521;75;4824139;-75
2023/09/19 05:10:50;;;;;;;2.40;1.10;;;;;;;18.37;100.00;97390.28;1149137;75;8943433;-76
2023/09/19 05:13:23;;;;;;;2.20;1.30;;;;;;;18.47;100.00;97393.38;1220606;75;3045043;-80
2023/09/19 05:15:56;;;;;;;1.30;1.00;;;;;;;18.57;100.00;97394.44;1183874;75;4872118;-76
2023/09/19 05:18:28;;;;;;;2.00;1.20;;;;;;;18.53;100.00;97394.75;1167386;75;4855390;-74
2023/09/19 05:21:01;;;;;;;3.30;1.35;;;;;;;18.35;100.00;97403.19;1218708;75;3070621;-78
2023/09/19 05:23:36;;;;;;;3.40;1.70;;;;;;;18.13;100.00;97407.91;1218935;75;3077741;-80
2023/09/19 05:26:10;;;;;;;3.35;1.45;;;;;;;18.18;100.00;97412.59;1210974;75;3841070;-76
2023/09/19 05:28:43;;;;;;;2.40;1.30;;;;;;;18.29;100.00;97408.88;1194083;75;4048444;-75
2023/09/19 05:31:16;;;;;;;9.95;1.80;;;;;;;18.13;100.00;97407.91;1195653;75;4900495;-79
2023/09/19 05:33:52;;;;;;;3.60;1.70;;;;;;;18.03;100.00;97415.16;1178662;75;4131043;-73
2023/09/19 05:36:29;;;;;;;5.78;1.67;;;;;;;18.08;100.00;97408.75;1195769;75;8976284;-74
2023/09/19 05:39:05;;;;;;;2.50;1.35;;;;;;;18.30;100.00;97413.09;1222736;75;3052095;-77
2023/09/19 05:41:39;;;;;;;1.60;1.20;;;;;;;18.40;100.00;97413.41;1211301;75;3885276;-76
2023/09/19 05:44:12;;;;;;;1.10;0.95;;;;;;;18.45;100.00;97416.09;1221302;75;3047990;-80
2023/09/19 05:46:45;;;;;;;1.90;1.20;;;;;;;18.40;100.00;97408.66;1198447;75;5035087;-76
2023/09/19 05:49:18;;;;;;;2.40;1.50;;;;;;;18.37;100.00;97412.47;1204163;75;4048203;-76
2023/09/19 05:51:53;;;;;;;3.15;2.35;;;;;;;18.51;100.00;97408.38;1218185;75;3078468;-77
2023/09/19 05:54:29;;;;;;;3.25;2.05;;;;;;;18.48;100.00;97412.25;1141257;75;9680085;-77
2023/09/19 05:57:01;;;;;;;4.30;2.10;;;;;;;18.68;100.00;97412.84;1217859;75;3043458;-80
2023/09/19 05:59:34;;;;;;;1.85;1.50;;;;;;;18.73;100.00;97412.72;1189756;75;4111020;-78
2023/09/19 06:02:07;;;;;;;2.65;1.60;;;;;;;18.57;100.00;97413.06;1221309;75;3003569;-76
2023/09/19 06:04:40;;;;;;;2.00;1.60;;;;;;;18.69;100.00;97417.84;1219014;75;3043475;-77
2023/09/19 06:07:13;;;;;;;2.40;1.20;;;;;;;18.69;100.00;97423.41;1210684;75;4031753;-76
2023/09/19 06:09:49;;;;;;;4.70;2.00;;;;;;;18.42;100.00;97424.72;1211928;75;3884868;-79
2023/09/19 06:12:21;;;;;;;3.35;2.00;;;;;;;18.50;100.00;97425.56;1222596;75;3001480;-80
2023/09/19 06:14:54;;;;;;;3.95;2.10;;;;;;;18.49;100.00;97422.03;1224165;75;2929593;-79
2023/09/19 06:17:28;;;;;;;3.45;2.25;;;;;;;18.68;100.00;97427.44;1212373;75;3839028;-80
2023/09/19 06:20:01;;;;;;;2.30;1.75;;;;;;;18.80;100.00;97430.00;1210058;75;4014885;-78
2023/09/19 06:22:35;;;;;;;5.10;1.90;;;;;;;18.65;100.00;97445.16;1210251;75;4006936;-82
2023/09/19 06:25:19;;;;;;;2.75;1.80;;;;;;;18.66;100.00;97443.13;1208874;75;3886717;-77
2023/09/19 06:27:53;;;;;;;4.95;2.95;;;;;;;18.29;100.00;97447.66;1194769;75;4061489;-82
2023/09/19 06:30:29;;;;;;;6.00;2.95;;;;;;;18.43;100.00;97453.94;1215949;75;3099069;-79
2023/09/19 06:33:03;;;;;;;6.95;2.90;;;;;;;18.29;100.00;97455.97;1149321;75;8736197;-77
2023/09/19 06:35:37;;;;;;;3.30;2.30;;;;;;;18.60;100.00;97459.88;1208729;83;3914256;-81
2023/09/19 06:38:12;;;;;;;3.50;2.45;;;;;;;18.62;100.00;97462.13;1198915;67;4881645;-76
2023/09/19 06:40:48;;;;;;;2.65;1.90;;;;;;;18.66;100.00;97454.97;1220572;75;2971241;-80
2023/09/19 06:43:20;;;;;;;2.20;1.90;;;;;;;18.73;100.00;97472.97;1193338;75;4915140;-80
2023/09/19 06:45:55;;;;;;;4.78;2.42;;;;;;;18.73;100.00;97468.16;1180591;75;5032930;-74
2023/09/19 06:48:29;;;;;;;3.40;2.00;;;;;;;18.77;100.00;97476.22;1209737;75;3848855;-79
2023/09/19 06:51:05;;;;;;;4.00;2.30;;;;;;;18.81;100.00;97484.94;1222840;75;2929292;-81
2023/09/19 06:53:37;;;;;;;3.20;2.40;;;;;;;18.89;100.00;97496.13;1200374;75;4874265;-80
2023/09/19 06:56:13;;;;;;;3.40;2.20;;;;;;;19.03;100.00;97503.16;1197041;75;4936616;-78
2023/09/19 06:58:45;;;;;;;3.75;2.30;;;;;;;18.97;100.00;97515.63;1223835;75;2922079;-80
2023/09/19 07:01:18;;;;;;;6.10;3.15;;;;;;;19.00;100.00;97517.31;1180014;75;5044409;-76
2023/09/19 07:03:54;;;;;;;2.70;1.90;;;;;;;19.38;100.00;97523.31;1175232;75;4802647;-74
2023/09/19 07:06:27;;;;;;;3.20;1.70;;;;;;;19.27;100.00;97504.88;1195838;75;5083683;-78
2023/09/19 07:09:00;;;;;;;2.60;1.70;;;;;;;19.50;100.00;97515.47;1218290;75;3093896;-81
2023/09/19 07:11:35;;;;;;;3.85;1.65;;;;;;;19.49;100.00;97514.00;1205099;75;3957654;-77
2023/09/19 07:14:08;;;;;;;;;;;;;;;19.72;100.00;97515.00;1196666;75;4091099;-80
2023/09/19 07:16:42;;;;;;;1.80;1.10;;;;;;;19.53;100.00;97526.25;1195993;75;4888358;-78
2023/09/19 07:19:15;;;;;;;1.80;1.30;;;;;;;19.41;100.00;97518.72;1211227;75;3988652;-80
2023/09/19 07:21:50;;;;;;;2.55;1.40;;;;;;;19.41;100.00;97521.47;1197638;75;4959391;-80
2023/09/19 07:24:23;;;;;;;1.20;0.95;;;;;;;19.50;100.00;97524.53;1208107;75;4075878;-77
2023/09/19 07:26:59;;;;;;;1.75;1.40;;;;;;;19.53;100.00;97526.25;1210400;75;3866219;-78
2023/09/19 07:29:31;;;;;;;2.75;1.55;;;;;;;19.41;100.00;97533.34;1208680;75;3899603;-80
2023/09/19 07:32:04;;;;;;;2.05;1.00;;;;;;;19.51;100.00;97539.94;1196757;75;4816573;-78
2023/09/19 07:34:38;;;;;;;1.50;1.20;;;;;;;19.85;100.00;97555.84;1223415;75;2922944;-77
2023/09/19 07:37:13;;;;;;;1.60;1.35;;;;;;;19.67;100.00;97553.97;1151354;75;8900410;-79
2023/09/19 07:39:46;;;;;;;2.00;1.00;;;;;;;19.69;100.00;97562.53;1154574;75;8670981;-81
2023/09/19 07:42:21;;;;;;;4.15;2.90;;;;;;;19.62;100.00;97557.63;1219535;75;3040165;-78
2023/09/19 07:44:54;;;;;;;5.00;3.70;;;;;;;19.64;100.00;97555.03;1223257;75;2968343;-78
2023/09/19 07:47:27;;;;;;;3.60;2.65;;;;;;;20.03;100.00;97564.50;1219948;75;3022910;-78
2023/09/19 07:50:01;;;;;;;3.05;2.30;;;;;;;19.63;100.00;97564.69;1208073;75;4062874;-76
2023/09/19 07:52:35;;;;;;;4.45;2.25;;;;;;;19.49;100.00;97573.03;1219860;75;3018818;-79
2023/09/19 07:55:09;;;;;;;6.45;3.95;;;;;;;19.23;100.00;97571.06;1207437;75;3990491;-77
2023/09/19 07:57:44;;;;;;;8.55;6.30;;;;;;;19.39;100.00;97571.28;1157254;75;8484309;-77
2023/09/19 08:00:18;;;;;;;4.50;2.65;;;;;;;19.33;100.00;97565.81;1168360;75;5001005;-77
2023/09/19 08:02:52;;;;;;;4.00;2.65;;;;;;;19.73;100.00;97574.78;1199712;75;4816793;-80
2023/09/19 08:05:24;;;;;;;3.50;2.30;;;;;;;19.72;100.00;97587.19;1220921;75;3038366;-80
2023/09/19 08:07:58;;;;;;;4.10;2.35;;;;;;;19.75;100.00;97583.34;1219279;75;3023814;-76
2023/09/19 08:10:35;;;;;;;2.60;1.80;;;;;;;20.09;100.00;97584.56;1197645;75;3976871;-80
2023/09/19 08:13:13;;;;;;;2.55;1.90;;;;;;;20.21;100.00;97594.88;1173092;75;4899692;-79
2023/09/19 08:15:48;;;;;;;4.20;2.00;;;;;;;20.56;100.00;97589.94;1222549;75;3021820;-80
2023/09/19 08:18:22;;;;;;;3.20;2.00;;;;;;;21.12;100.00;97593.25;1134922;75;8931325;-79
2023/09/19 08:20:58;;;;;;;3.30;1.75;;;;;;;21.07;100.00;97591.38;1151477;75;8872668;-79
2023/09/19 08:23:32;;;;;;;3.50;2.00;;;;;;;21.47;100.00;97608.44;1219617;75;3081302;-81
2023/09/19 08:26:06;;;;;;;4.10;2.15;;;;;;;21.54;100.00;97598.63;1223530;75;3032696;-78
2023/09/19 08:28:42;;;;;;;3.40;2.00;;;;;;;21.75;100.00;97604.06;1223226;75;2948931;-80
2023/09/19 08:31:15;;;;;;;2.60;2.00;;;;;;;22.05;100.00;97608.94;1223926;83;2920165;-82
2023/09/19 08:33:51;;;;;;;5.55;2.10;;;;;;;22.02;100.00;97596.13;1217195;75;3039597;-81
2023/09/19 08:36:23;;;;;;;5.40;2.00;;;;;;;21.98;100.00;97604.09;1206601;75;4067150;-80
2023/09/19 08:38:56;;;;;;;2.70;1.80;;;;;;;21.94;100.00;97598.16;1209348;75;3861246;-78
2023/09/19 08:41:29;;;;;;;3.80;2.25;;;;;;;23.66;95.80;97593.22;1223794;75;2930540;-78
2023/09/19 08:44:06;;;;;;;4.20;2.00;;;;;;;24.19;92.54;97590.06;1213104;75;3814885;-80
2023/09/19 08:46:41;;;;;;;3.60;1.85;;;;;;;24.56;85.94;97595.97;1184867;75;4898524;-79
2023/09/19 08:49:28;;;;;;;2.70;1.40;;;;;;;25.98;73.01;97593.94;1224466;75;2918929;-80
2023/09/19 08:52:11;;;;;;;3.25;1.75;;;;;;;25.55;72.75;97601.81;1195459;75;4833407;-81
2023/09/19 08:54:44;;;;;;;2.95;2.00;;;;;;;26.83;69.22;97592.56;1126908;75;10743823;-80
2023/09/19 08:57:22;;;;;;;5.80;1.90;;;;;;;24.35;80.97;97598.34;1224490;75;2934926;-76
2023/09/19 08:59:58;;;;;;;3.70;2.00;;;;;;;26.23;73.47;97602.13;1209854;75;3985317;-78
2023/09/19 09:02:33;;;;;;;3.85;1.40;;;;;;;24.54;73.76;97600.66;1198616;75;4004510;-79
2023/09/19 09:05:10;;;;;;;1.65;1.40;;;;;;;25.23;73.64;97600.72;1218522;75;3067077;-80
2023/09/19 09:07:43;;;;;;;2.10;1.20;;;;;;;25.14;70.73;97600.59;1182936;75;4092186;-77
2023/09/19 09:10:16;;;;;;;1.70;1.10;;;;;;;26.10;70.33;97610.97;1209250;75;3903156;-80
2023/09/19 09:12:49;;;;;;;2.45;1.30;;;;;;;25.16;73.48;97601.50;1220246;75;3025628;-79
2023/09/19 09:15:26;;;;;;;1.95;1.10;;;;;;;25.35;74.26;97609.34;1220014;75;3077200;-78
2023/09/19 09:17:59;;;;;;;1.80;1.50;;;;;;;24.19;76.93;97609.66;1222971;75;2923497;-80
2023/09/19 09:20:32;;;;;;;3.85;1.40;;;;;;;24.91;74.74;97612.03;1221355;75;2984171;-80
2023/09/19 09:23:05;;;;;;;1.95;1.15;;;;;;;24.37;76.06;97607.66;1148513;75;8942446;-79
2023/09/19 09:25:59;;;;;;;2.30;0.95;;;;;;;23.58;81.16;97616.34;1220067;75;3034231;-81
2023/09/19 09:28:33;;;;;;;1.40;0.70;;;;;;;23.68;81.96;97615.75;1151978;75;8911367;-81
2023/09/19 09:31:12;;;;;;;1.75;1.05;;;;;;;23.23;87.44;97614.63;1115755;75;9851545;-79
2023/09/19 09:33:45;;;;;;;3.15;1.30;;;;;;;23.16;87.24;97607.75;1151194;75;8808690;-80
2023/09/19 09:36:18;;;;;;;1.95;1.15;;;;;;;22.75;88.40;97615.28;1197711;75;4836881;-76
2023/09/19 09:38:55;;;;;;;2.75;1.00;;;;;;;23.14;86.69;97604.81;1223102;75;3007863;-80
2023/09/19 09:41:40;;;;;;;2.20;1.00;;;;;;;22.99;87.69;97613.22;1209760;75;3964748;-77
2023/09/19 09:44:18;;;;;;;4.25;2.50;;;;;;;22.43;89.76;97610.31;1197862;75;5015064;-79
2023/09/19 09:50:06;;;;;;;1.70;1.10;;;;;;;23.05;90.32;97620.09;1185523;75;5838615;-81
2023/09/19 09:52:49;;;;;;;3.00;1.40;;;;;;;23.03;94.48;97613.59;1219930;75;2992805;-81
2023/09/19 09:55:22;;;;;;;1.90;1.00;;;;;;;22.88;95.59;97615.09;1190706;75;4100549;-78
2023/09/19 09:58:24;;;;;;;1.95;1.10;;;;;;;23.09;91.87;97614.13;1210918;75;3952515;-80
2023/09/19 10:00:58;;;;;;;2.50;1.25;;;;;;;23.15;91.87;97623.78;1208419;75;4093294;-78
2023/09/19 10:03:44;;;;;;;1.35;1.00;;;;;;;23.00;89.92;97623.09;1182136;75;4044303;-80
2023/09/19 10:09:11;;;;;;;1.55;0.85;;;;;;;22.95;83.44;97619.91;1191469;75;3965591;-76
2023/09/19 10:11:47;;;;;;;2.60;0.80;;;;;;;23.28;80.47;97633.22;1208422;75;3972842;-79
2023/09/19 10:14:23;;;;;;;1.40;0.80;;;;;;;23.00;84.66;97623.84;1206809;75;4105551;-79
2023/09/19 10:17:03;;;;;;;2.40;1.10;;;;;;;23.25;77.83;97626.72;1224477;75;2931326;-78
2023/09/19 10:19:48;;;;;;;1.20;0.80;;;;;;;23.08;78.35;97629.38;1197339;75;4821824;-78
2023/09/19 10:22:23;;;;;;;2.35;1.00;;;;;;;23.66;79.71;97624.69;1221740;75;3045125;-79
2023/09/19 10:24:59;;;;;;;4.30;0.90;;;;;;;23.84;74.10;97625.56;1185111;75;4840135;-81
2023/09/19 10:27:37;;;;;;;2.30;1.20;;;;;;;23.94;75.27;97628.50;1194935;75;5075807;-79
2023/09/19 10:30:14;;;;;;;1.20;0.80;;;;;;;24.35;76.26;97637.53;1196912;75;5010917;-79
2023/09/19 10:32:50;;;;;;;1.80;1.25;;;;;;;24.55;74.39;97632.91;1209540;75;4089717;-79
2023/09/19 10:35:27;;;;;;;1.65;1.00;;;;;;;25.11;73.95;97633.31;1211280;75;3877586;-79
2023/09/19 10:38:04;;;;;;;1.40;1.00;;;;;;;24.96;69.38;97633.47;1209722;75;3815439;-78
2023/09/19 10:40:42;;;;;;;3.50;0.90;;;;;;;25.19;67.81;97627.66;1208641;75;4032598;-82
2023/09/19 10:43:19;;;;;;;0.85;0.65;;;;;;;25.03;70.00;97627.03;1172887;75;4909449;-79
2023/09/19 10:45:54;;;;;;;2.80;1.00;;;;;;;24.39;69.63;97633.03;1210124;75;3830517;-77
2023/09/19 10:48:28;;;;;;;2.45;0.80;;;;;;;23.48;73.33;97625.91;1150262;75;8831401;-77
2023/09/19 10:51:10;;;;;;;2.10;0.90;;;;;;;23.42;77.02;97633.75;1208339;75;3946505;-77
2023/09/19 10:53:53;;;;;;;2.65;0.70;;;;;;;24.36;72.25;97622.22;1179797;75;4091535;-78
2023/09/19 10:56:36;;;;;;;1.85;1.00;;;;;;;24.08;71.93;97623.38;1171688;75;5091824;-79
2023/09/19 10:59:13;;;;;;;1.65;0.70;;;;;;;24.26;72.63;97615.78;1223580;75;2921887;-76
2023/09/19 11:01:50;;;;;;;1.10;0.55;;;;;;;24.54;68.05;97623.78;1211775;75;3912416;-79
2023/09/19 11:04:29;;;;;;;1.40;0.70;;;;;;;24.38;67.10;97608.41;1198032;75;3896503;-79
2023/09/19 11:07:11;;;;;;;2.15;0.90;;;;;;;24.49;70.36;97607.22;1208548;75;3958141;-79
2023/09/19 11:09:53;;;;;;;1.30;0.80;;;;;;;24.99;69.24;97615.50;1208468;75;3875103;-78
2023/09/19 11:13:02;;;;;;;1.45;0.75;;;;;;;25.09;70.22;97614.28;1196783;75;4943573;-79
2023/09/19 11:16:23;;;;;;;2.30;0.70;;;;;;;25.29;69.21;97612.38;1206327;75;3926349;-81
2023/09/19 11:18:57;;;;;;;1.80;1.30;;;;;;;25.01;70.08;97608.00;1191732;75;4981184;-76
2023/09/19 11:21:59;;;;;;;2.20;1.05;;;;;;;25.33;69.73;97619.63;1209995;75;3827158;-80
2023/09/19 11:24:37;;;;;;;3.70;2.70;;;;;;;25.13;68.79;97619.44;1152299;75;8585731;-79
2023/09/19 11:27:20;;;;;;;1.95;0.90;;;;;;;25.49;69.82;97606.91;1220538;75;2962730;-78
2023/09/19 11:30:12;;;;;;;2.70;0.70;;;;;;;25.36;66.83;97608.00;1219355;75;3132057;-78
2023/09/19 11:33:23;;;;;;;1.00;0.80;;;;;;;24.90;70.02;97605.72;1206307;75;3945635;-80
2023/09/19 11:36:09;;;;;;;1.50;0.90;;;;;;;25.44;67.85;97605.84;1205739;75;4102383;-76
2023/09/19 11:39:14;;;;;;;2.30;1.35;;;;;;;25.67;68.87;97605.56;1204423;75;3926174;-79
2023/09/19 11:41:56;;;;;;;2.05;0.80;;;;;;;25.85;69.00;97594.28;1208600;75;3868418;-78
2023/09/19 11:44:38;;;;;;;;;;;;;;;25.01;69.01;97602.41;1214248;75;3104428;-77
2023/09/19 11:47:12;;;;;;;1.55;1.00;;;;;;;25.26;67.92;97599.53;1208812;75;3843768;-78
2023/09/19 11:49:45;;;;;;;1.85;0.80;;;;;;;25.39;68.16;97598.44;1202895;75;3971470;-75
2023/09/19 11:52:26;;;;;;;1.50;0.75;;;;;;;25.52;66.02;97588.94;1224922;75;2923431;-77
2023/09/19 11:55:01;;;;;;;1.80;0.75;;;;;;;25.26;64.77;97585.53;1222779;75;2928787;-78
2023/09/19 11:57:37;;;;;;;1.95;0.80;;;;;;;24.68;64.39;97590.63;1209179;75;3879337;-76
2023/09/19 12:00:21;;;;;;;1.30;0.80;;;;;;;25.24;62.40;97581.81;1178822;67;5051650;-77
2023/09/19 12:03:00;;;;;;;1.25;0.70;;;;;;;25.72;60.21;97584.91;1207697;75;3930980;-79